Terminal Aerodrome Forecast
Issued by NWS

Home | Current Version | Previous Version | Text Only | Print | Product List | Glossary On
Versions: 1 2 3 4 5 6 7 8 9 10 11 12 13 14 15 16 17 18 19 20 21 22 23 24 25 26 27 28
000
FTAK31 PANC 130536
TAFAEN
TAF
PAEN 130536Z 1306/1406 05012KT P6SM SCT080 BKN120
     FM131100 04015G22KT P6SM -RA SCT025 BKN050
     FM131600 08007KT P6SM VCSH SCT035 BKN050
     FM132000 18009KT P6SM SCT045 BKN070=

USA.gov is the U.S. government's official web portal to all federal, state and local government web resources and services.